createdAt,value
2019-01-21T00:00:01.145Z,34.30
2019-01-21T00:02:34.124Z,33.53
2019-01-21T00:05:06.366Z,34.88
2019-01-21T00:07:40.020Z,34.00
2019-01-21T00:10:12.170Z,31.87
2019-01-21T00:12:44.030Z,33.30
2019-01-21T00:15:18.382Z,32.15
2019-01-21T00:17:49.689Z,34.47
2019-01-21T00:20:23.194Z,32.70
2019-01-21T00:22:57.211Z,32.07
2019-01-21T00:25:30.196Z,31.13
2019-01-21T00:28:02.351Z,28.97
2019-01-21T00:30:37.776Z,31.62
2019-01-21T00:33:10.359Z,31.57
2019-01-21T00:35:41.643Z,28.60
2019-01-21T00:38:15.305Z,30.00
2019-01-21T00:40:49.237Z,29.15
2019-01-21T00:43:22.268Z,29.98
2019-01-21T00:45:54.203Z,28.87
2019-01-21T00:48:26.173Z,27.60
2019-01-21T00:50:59.133Z,28.97
2019-01-21T00:53:34.885Z,27.10
2019-01-21T00:56:07.183Z,29.13
2019-01-21T00:58:38.458Z,28.35
2019-01-21T01:01:10.608Z,28.10
2019-01-21T01:03:42.234Z,28.10
2019-01-21T01:06:15.244Z,28.50
2019-01-21T01:08:47.299Z,27.83
2019-01-21T01:11:23.917Z,26.90
2019-01-21T01:13:56.048Z,27.25
2019-01-21T01:16:27.308Z,28.97
2019-01-21T01:19:00.544Z,28.30
2019-01-21T01:21:34.244Z,27.57
2019-01-21T01:24:09.878Z,27.10
2019-01-21T01:26:41.449Z,27.57
2019-01-21T01:29:14.515Z,27.93
2019-01-21T01:31:46.519Z,26.90
2019-01-21T01:34:18.309Z,27.53
2019-01-21T01:36:49.568Z,28.93
2019-01-21T01:39:25.125Z,27.00
2019-01-21T01:41:57.635Z,29.83
2019-01-21T01:44:30.507Z,29.50
2019-01-21T01:47:02.296Z,29.87
2019-01-21T01:49:35.665Z,28.57
2019-01-21T01:52:08.545Z,27.00
2019-01-21T01:54:40.616Z,29.10
2019-01-21T01:57:12.499Z,26.63
2019-01-21T01:59:45.654Z,25.92
2019-01-21T02:02:19.499Z,27.58
2019-01-21T02:04:54.768Z,26.47
2019-01-21T02:07:27.704Z,26.95
2019-01-21T02:10:03.235Z,27.57
2019-01-21T02:12:37.608Z,26.80
2019-01-21T02:15:11.223Z,27.00
2019-01-21T02:17:51.836Z,29.33
2019-01-21T02:20:20.637Z,26.10
2019-01-21T02:22:55.270Z,27.50
2019-01-21T02:25:44.002Z,28.57
2019-01-21T02:28:27.420Z,27.10
2019-01-21T02:31:37.700Z,27.37
2019-01-21T02:34:50.231Z,26.53
2019-01-21T02:37:57.006Z,26.52
2019-01-21T02:40:45.757Z,27.67
2019-01-21T02:43:58.245Z,26.87
2019-01-21T02:46:58.909Z,24.23
2019-01-21T02:50:15.321Z,25.83
2019-01-21T02:53:19.940Z,25.00
2019-01-21T02:56:35.839Z,24.90
2019-01-21T02:59:22.564Z,27.82
2019-01-21T03:02:53.489Z,24.60
2019-01-21T03:06:00.374Z,27.58
2019-01-21T03:09:14.557Z,25.40
2019-01-21T03:12:27.785Z,27.67
2019-01-21T03:15:30.762Z,25.17
2019-01-21T03:18:48.831Z,24.73
2019-01-21T03:22:16.273Z,24.40
2019-01-21T03:25:09.410Z,25.40
2019-01-21T03:28:26.803Z,26.87
2019-01-21T03:31:35.877Z,24.87
2019-01-21T03:34:32.405Z,24.45
2019-01-21T03:37:36.915Z,25.70
2019-01-21T03:40:42.207Z,25.52
2019-01-21T03:43:55.016Z,28.20
2019-01-21T03:47:04.096Z,24.47
2019-01-21T03:50:04.994Z,24.10
2019-01-21T03:53:18.238Z,23.60
2019-01-21T03:55:55.078Z,24.17
2019-01-21T03:58:53.445Z,24.63
2019-01-21T04:01:53.095Z,25.10
2019-01-21T04:04:58.661Z,26.37
2019-01-21T04:07:43.069Z,26.33
2019-01-21T04:10:51.400Z,24.30
2019-01-21T04:13:55.127Z,24.87
2019-01-21T04:17:13.299Z,25.55
2019-01-21T04:20:36.621Z,25.70
2019-01-21T04:23:53.129Z,26.87
2019-01-21T04:26:55.118Z,27.27
2019-01-21T04:29:59.454Z,24.10
2019-01-21T04:33:08.208Z,26.33
2019-01-21T04:35:58.584Z,25.50
2019-01-21T04:39:00.080Z,26.20
2019-01-21T04:41:51.729Z,28.10
2019-01-21T04:44:57.077Z,27.23
2019-01-21T04:48:11.024Z,28.30
2019-01-21T04:51:38.718Z,29.37
2019-01-21T04:54:41.759Z,34.73
2019-01-21T04:57:49.990Z,28.70
2019-01-21T05:00:50.567Z,27.73
2019-01-21T05:04:01.294Z,28.38
2019-01-21T05:07:17.616Z,31.03
2019-01-21T05:10:21.602Z,33.15
2019-01-21T05:13:44.513Z,33.50
2019-01-21T05:16:43.552Z,35.40
2019-01-21T05:19:52.645Z,38.43
2019-01-21T05:22:52.978Z,38.20
2019-01-21T05:26:22.293Z,32.25
2019-01-21T05:29:24.801Z,30.97
2019-01-21T05:32:42.576Z,28.40
2019-01-21T05:36:10.329Z,26.13
2019-01-21T05:38:51.945Z,25.05
2019-01-21T05:42:12.846Z,22.90
2019-01-21T05:45:10.732Z,23.53
2019-01-21T05:48:16.118Z,23.70
2019-01-21T05:51:38.639Z,25.83
2019-01-21T05:54:51.731Z,27.97
2019-01-21T05:57:58.228Z,27.40
2019-01-21T06:00:54.996Z,26.97
2019-01-21T06:03:55.820Z,27.90
2019-01-21T06:07:01.067Z,26.37
2019-01-21T06:09:58.230Z,24.63
2019-01-21T06:13:01.784Z,24.53
2019-01-21T06:16:20.758Z,23.27
2019-01-21T06:19:25.795Z,23.07
2019-01-21T06:22:31.645Z,24.37
2019-01-21T06:25:50.580Z,24.82
2019-01-21T06:29:04.005Z,23.80
2019-01-21T06:32:14.599Z,23.03
2019-01-21T06:34:59.581Z,23.07
2019-01-21T06:38:00.736Z,24.18
2019-01-21T06:41:17.242Z,23.43
2019-01-21T06:44:24.287Z,23.60
2019-01-21T06:47:26.330Z,23.00
2019-01-21T06:51:04.164Z,25.07
2019-01-21T06:54:08.747Z,25.70
2019-01-21T06:57:31.231Z,24.50
2019-01-21T07:00:35.943Z,25.68
2019-01-21T07:03:39.587Z,23.40
2019-01-21T07:07:07.082Z,24.27
2019-01-21T07:10:17.578Z,23.77
2019-01-21T07:13:52.194Z,27.45
2019-01-21T07:17:14.365Z,25.50
2019-01-21T07:20:25.457Z,26.27
2019-01-21T07:23:38.930Z,27.13
2019-01-21T07:26:51.413Z,31.10
2019-01-21T07:30:09.797Z,27.67
2019-01-21T07:33:18.929Z,27.83
2019-01-21T07:36:47.816Z,30.20
2019-01-21T07:40:26.203Z,28.32
2019-01-21T07:43:51.420Z,26.60
2019-01-21T07:47:05.171Z,28.02
2019-01-21T07:50:20.641Z,33.23
2019-01-21T07:53:25.842Z,28.97
2019-01-21T07:56:36.395Z,30.73
2019-01-21T07:59:49.061Z,31.13
2019-01-21T08:02:40.851Z,31.30
2019-01-21T08:05:38.672Z,33.02
2019-01-21T08:09:01.750Z,34.45
2019-01-21T08:12:30.189Z,33.03
2019-01-21T08:15:20.365Z,33.70
2019-01-21T08:18:42.445Z,32.93
2019-01-21T08:22:07.618Z,33.80
2019-01-21T08:25:04.641Z,30.88
2019-01-21T08:28:14.480Z,32.57
2019-01-21T08:31:23.896Z,32.03
2019-01-21T08:34:40.018Z,32.80
2019-01-21T08:37:41.746Z,31.40
2019-01-21T08:41:06.839Z,33.60
2019-01-21T08:44:20.244Z,31.90
2019-01-21T08:47:34.516Z,31.65
2019-01-21T08:50:40.627Z,30.10
2019-01-21T08:53:39.642Z,29.87
2019-01-21T08:56:23.254Z,31.15
2019-01-21T08:59:38.730Z,29.80
2019-01-21T09:03:08.025Z,30.35
2019-01-21T09:06:09.717Z,28.87
2019-01-21T09:09:33.846Z,31.03
2019-01-21T09:12:52.555Z,28.13
2019-01-21T09:16:06.800Z,29.37
2019-01-21T09:19:12.708Z,30.00
2019-01-21T09:22:26.831Z,28.73
2019-01-21T09:25:06.997Z,28.20
2019-01-21T09:28:13.737Z,29.90
2019-01-21T09:31:18.102Z,29.17
2019-01-21T09:34:17.935Z,30.60
2019-01-21T09:37:23.458Z,28.70
2019-01-21T09:40:43.814Z,29.23
2019-01-21T09:43:40.754Z,29.70
2019-01-21T09:46:49.807Z,30.83
2019-01-21T09:49:22.025Z,29.90
2019-01-21T09:52:07.068Z,31.05
2019-01-21T09:54:41.513Z,30.40
2019-01-21T09:57:21.408Z,32.28
2019-01-21T10:00:00.974Z,30.20
2019-01-21T10:02:55.487Z,28.45
2019-01-21T10:05:30.418Z,30.75
2019-01-21T10:08:52.746Z,31.63
2019-01-21T10:12:15.627Z,30.77
2019-01-21T10:15:11.007Z,32.17
2019-01-21T10:18:14.977Z,33.92
2019-01-21T10:21:11.341Z,32.77
2019-01-21T10:24:45.173Z,34.67
2019-01-21T10:27:37.914Z,33.77
2019-01-21T10:30:42.834Z,32.67
2019-01-21T10:34:09.004Z,34.60
2019-01-21T10:37:37.040Z,32.80
2019-01-21T10:40:29.125Z,31.10
2019-01-21T10:43:45.633Z,35.43
2019-01-21T10:46:42.021Z,33.20
2019-01-21T10:49:34.993Z,33.35
2019-01-21T10:52:47.510Z,35.67
2019-01-21T10:55:55.438Z,33.90
2019-01-21T10:59:01.372Z,29.50
2019-01-21T11:02:20.020Z,30.37
2019-01-21T11:05:01.210Z,28.37
2019-01-21T11:08:31.012Z,31.13
2019-01-21T11:11:38.307Z,29.37
2019-01-21T11:14:56.074Z,30.53
2019-01-21T11:18:01.289Z,28.42
2019-01-21T11:21:12.413Z,28.93
2019-01-21T11:24:04.537Z,27.73
2019-01-21T11:27:33.226Z,26.47
2019-01-21T11:31:07.905Z,27.13
2019-01-21T11:34:15.302Z,29.00
2019-01-21T11:37:31.388Z,30.83
2019-01-21T11:40:53.293Z,29.13
2019-01-21T11:44:13.641Z,29.65
2019-01-21T11:47:23.081Z,29.57
2019-01-21T11:50:22.612Z,29.03
2019-01-21T11:53:39.966Z,28.67
2019-01-21T11:56:27.505Z,30.20
2019-01-21T11:59:30.256Z,28.53
2019-01-21T12:02:54.557Z,29.27
2019-01-21T12:05:42.524Z,28.12
2019-01-21T12:08:47.741Z,27.93
2019-01-21T12:11:59.430Z,28.95
2019-01-21T12:15:00.233Z,28.47
2019-01-21T12:17:44.392Z,26.70
2019-01-21T12:20:43.023Z,28.30
2019-01-21T12:23:44.439Z,29.70
2019-01-21T12:27:11.999Z,26.30
2019-01-21T12:30:27.376Z,26.83
2019-01-21T12:33:14.855Z,28.00
2019-01-21T12:35:58.239Z,29.93
2019-01-21T12:39:00.627Z,28.83
2019-01-21T12:41:49.485Z,29.67
2019-01-21T12:44:57.681Z,27.90
2019-01-21T12:48:02.016Z,26.25
2019-01-21T12:51:22.224Z,28.33
2019-01-21T12:54:31.263Z,30.30
2019-01-21T12:57:53.244Z,28.50
2019-01-21T13:01:03.641Z,27.20
2019-01-21T13:04:34.999Z,28.98
2019-01-21T13:07:56.139Z,28.20
2019-01-21T13:11:28.487Z,28.90
2019-01-21T13:14:32.491Z,26.23
2019-01-21T13:17:24.207Z,26.93
2019-01-21T13:20:38.168Z,26.03
2019-01-21T13:23:42.006Z,25.67
2019-01-21T13:26:50.397Z,25.63
2019-01-21T13:29:41.216Z,24.70
2019-01-21T13:32:55.863Z,26.30
2019-01-21T13:36:14.508Z,25.70
2019-01-21T13:39:18.538Z,23.27
2019-01-21T13:42:24.820Z,24.00
2019-01-21T13:45:34.366Z,22.58
2019-01-21T13:48:30.598Z,21.97
2019-01-21T13:51:27.977Z,22.47
2019-01-21T13:54:41.374Z,22.43
2019-01-21T13:57:49.999Z,20.80
2019-01-21T14:00:39.383Z,21.60
2019-01-21T14:03:47.386Z,19.60
2019-01-21T14:06:59.621Z,19.37
2019-01-21T14:10:21.587Z,17.70
2019-01-21T14:13:05.955Z,19.43
2019-01-21T14:15:51.557Z,20.87
2019-01-21T14:18:57.367Z,21.20
2019-01-21T14:22:08.797Z,22.10
2019-01-21T14:25:17.801Z,18.10
2019-01-21T14:28:26.771Z,21.07
2019-01-21T14:31:40.017Z,21.33
2019-01-21T14:34:52.534Z,20.48
2019-01-21T14:37:50.423Z,21.52
2019-01-21T14:40:31.975Z,19.63
2019-01-21T14:43:46.277Z,21.27
2019-01-21T14:46:55.150Z,24.43
2019-01-21T14:49:51.203Z,23.75
2019-01-21T14:52:53.601Z,27.07
2019-01-21T14:55:44.919Z,24.30
2019-01-21T14:58:36.607Z,26.17
2019-01-21T15:01:42.479Z,25.57
2019-01-21T15:04:33.086Z,24.40
2019-01-21T15:07:45.304Z,26.40
2019-01-21T15:10:45.701Z,22.57
2019-01-21T15:13:49.342Z,27.70
2019-01-21T15:17:02.225Z,26.70
2019-01-21T15:20:40.476Z,30.77
2019-01-21T15:23:57.973Z,30.43
2019-01-21T15:26:39.806Z,30.80
2019-01-21T15:29:31.551Z,30.90
2019-01-21T15:32:43.133Z,31.10
2019-01-21T15:35:42.156Z,30.73
2019-01-21T15:38:44.455Z,33.30
2019-01-21T15:41:49.372Z,33.15
2019-01-21T15:45:05.706Z,32.30
2019-01-21T15:48:09.495Z,32.40
2019-01-21T15:51:10.818Z,33.65
2019-01-21T15:54:10.223Z,30.63
2019-01-21T15:57:33.560Z,32.23
2019-01-21T16:00:42.993Z,32.98
2019-01-21T16:04:06.751Z,35.30
2019-01-21T16:07:01.456Z,34.00
2019-01-21T16:10:00.938Z,33.37
2019-01-21T16:12:53.506Z,36.37
2019-01-21T16:16:07.005Z,36.40
2019-01-21T16:18:56.817Z,36.03
2019-01-21T16:22:08.086Z,36.43
2019-01-21T16:25:00.249Z,38.80
2019-01-21T16:28:14.383Z,37.57
2019-01-21T16:30:57.818Z,35.60
2019-01-21T16:34:26.654Z,40.90
2019-01-21T16:37:49.416Z,39.00
2019-01-21T16:40:58.601Z,36.47
2019-01-21T16:43:31.674Z,37.13
2019-01-21T16:46:03.978Z,40.00
2019-01-21T16:48:36.678Z,41.47
2019-01-21T16:51:10.627Z,40.30
2019-01-21T16:53:45.044Z,42.53
2019-01-21T16:56:18.502Z,42.40
2019-01-21T16:58:53.858Z,40.20
2019-01-21T17:01:28.194Z,47.75
2019-01-21T17:04:01.438Z,51.50
2019-01-21T17:06:34.581Z,40.50
2019-01-21T17:09:10.473Z,39.33
2019-01-21T17:11:42.419Z,43.83
2019-01-21T17:14:14.017Z,42.50
2019-01-21T17:16:46.733Z,38.33
2019-01-21T17:19:18.084Z,40.55
2019-01-21T17:21:51.919Z,40.77
2019-01-21T17:24:25.621Z,40.67
2019-01-21T17:26:56.985Z,38.40
2019-01-21T17:29:28.240Z,39.20
2019-01-21T17:32:01.621Z,41.05
2019-01-21T17:34:33.359Z,39.07
2019-01-21T17:37:06.682Z,36.87
2019-01-21T17:39:40.807Z,37.90
2019-01-21T17:42:12.821Z,40.70
2019-01-21T17:44:45.740Z,40.00
2019-01-21T17:47:19.593Z,37.63
2019-01-21T17:49:50.890Z,38.53
2019-01-21T17:52:22.147Z,38.23
2019-01-21T17:54:55.725Z,38.73
2019-01-21T17:57:28.727Z,38.33
2019-01-21T18:00:03.358Z,38.20
2019-01-21T18:02:37.837Z,37.53
2019-01-21T18:05:10.137Z,39.45
2019-01-21T18:07:42.560Z,37.47
2019-01-21T18:10:15.088Z,40.70
2019-01-21T18:12:47.865Z,39.10
2019-01-21T18:15:20.862Z,40.73
2019-01-21T18:17:54.917Z,39.33
2019-01-21T18:20:26.974Z,38.53
2019-01-21T18:22:59.868Z,41.27
2019-01-21T18:25:34.710Z,39.23
2019-01-21T18:28:05.833Z,36.60
2019-01-21T18:30:39.930Z,39.15
2019-01-21T18:33:14.055Z,39.90
2019-01-21T18:35:48.248Z,43.77
2019-01-21T18:38:22.511Z,41.73
2019-01-21T18:40:55.172Z,42.97
2019-01-21T18:43:27.404Z,41.25
2019-01-21T18:46:01.183Z,41.80
2019-01-21T18:48:35.089Z,44.73
2019-01-21T18:51:07.152Z,44.57
2019-01-21T18:53:40.072Z,39.93
2019-01-21T18:56:13.244Z,44.30
2019-01-21T18:58:45.304Z,45.10
2019-01-21T19:01:18.965Z,44.85
2019-01-21T19:03:50.320Z,41.50
2019-01-21T19:06:24.325Z,45.40
2019-01-21T19:08:58.288Z,43.30
2019-01-21T19:11:32.461Z,44.97
2019-01-21T19:14:04.602Z,42.27
2019-01-21T19:16:37.119Z,42.60
2019-01-21T19:19:10.466Z,41.60
2019-01-21T19:21:41.991Z,44.97
2019-01-21T19:24:16.192Z,42.20
2019-01-21T19:26:50.246Z,42.57
2019-01-21T19:29:24.452Z,41.47
2019-01-21T19:31:56.381Z,41.23
2019-01-21T19:34:29.268Z,41.93
2019-01-21T19:37:02.883Z,41.93
2019-01-21T19:39:34.244Z,42.40
2019-01-21T19:42:08.384Z,41.57
2019-01-21T19:44:42.440Z,42.85
2019-01-21T19:47:15.319Z,40.97
2019-01-21T19:49:49.318Z,43.07
2019-01-21T19:52:22.353Z,42.90
2019-01-21T19:54:54.791Z,45.23
2019-01-21T19:57:26.132Z,45.83
2019-01-21T19:59:59.306Z,46.90
2019-01-21T20:02:32.004Z,44.70
2019-01-21T20:05:03.995Z,43.40
2019-01-21T20:07:35.396Z,43.10
2019-01-21T20:10:09.096Z,40.47
2019-01-21T20:12:43.462Z,42.57
2019-01-21T20:15:16.990Z,45.03
2019-01-21T20:17:48.388Z,44.90
2019-01-21T20:20:22.867Z,45.47
2019-01-21T20:22:57.588Z,47.23
2019-01-21T20:25:30.523Z,47.00
2019-01-21T20:28:02.764Z,43.50
2019-01-21T20:30:35.616Z,44.00
2019-01-21T20:33:07.718Z,43.90
2019-01-21T20:35:40.474Z,45.07
2019-01-21T20:38:14.491Z,42.83
2019-01-21T20:40:45.867Z,43.10
2019-01-21T20:43:19.485Z,42.93
2019-01-21T20:45:50.922Z,41.60
2019-01-21T20:48:23.187Z,40.50
2019-01-21T20:50:54.672Z,41.30
2019-01-21T20:53:26.766Z,40.37
2019-01-21T20:55:59.573Z,38.13
2019-01-21T20:58:32.013Z,39.00
2019-01-21T21:01:04.073Z,40.78
2019-01-21T21:03:35.669Z,40.17
2019-01-21T21:06:07.140Z,37.67
2019-01-21T21:08:38.499Z,37.60
2019-01-21T21:11:12.102Z,37.15
2019-01-21T21:13:45.698Z,34.50
2019-01-21T21:16:17.722Z,36.27
2019-01-21T21:18:49.680Z,35.73
2019-01-21T21:21:22.671Z,36.03
2019-01-21T21:23:55.699Z,36.20
2019-01-21T21:26:27.759Z,37.00
2019-01-21T21:29:00.748Z,35.13
2019-01-21T21:31:32.035Z,38.92
2019-01-21T21:34:03.289Z,34.60
2019-01-21T21:36:36.856Z,36.43
2019-01-21T21:39:09.505Z,34.33
2019-01-21T21:41:41.802Z,36.13
2019-01-21T21:44:15.871Z,37.30
2019-01-21T21:46:49.833Z,37.90
2019-01-21T21:49:24.779Z,36.57
2019-01-21T21:51:58.995Z,37.97
2019-01-21T21:54:31.899Z,36.70
2019-01-21T21:57:04.034Z,36.27
2019-01-21T21:59:36.820Z,39.27
2019-01-21T22:02:08.097Z,43.50
2019-01-21T22:04:41.758Z,38.67
2019-01-21T22:07:15.798Z,39.17
2019-01-21T22:09:47.075Z,42.40
2019-01-21T22:12:18.367Z,42.90
2019-01-21T22:14:51.947Z,40.90
2019-01-21T22:17:25.934Z,38.42
2019-01-21T22:19:59.813Z,43.73
2019-01-21T22:22:34.807Z,40.70
2019-01-21T22:25:08.315Z,37.83
2019-01-21T22:27:41.947Z,40.00
2019-01-21T22:30:21.233Z,41.50
2019-01-21T22:32:52.959Z,41.90
2019-01-21T22:35:27.047Z,40.00
2019-01-21T22:37:58.310Z,40.77
2019-01-21T22:40:29.575Z,39.00
2019-01-21T22:43:03.028Z,42.60
2019-01-21T22:45:34.331Z,38.07
2019-01-21T22:48:07.226Z,39.23
2019-01-21T22:50:40.073Z,39.17
2019-01-21T22:53:13.051Z,41.53
2019-01-21T22:55:48.649Z,40.97
2019-01-21T22:58:21.092Z,40.07
2019-01-21T23:01:04.370Z,39.75
2019-01-21T23:03:38.015Z,38.67
2019-01-21T23:06:12.016Z,37.57
2019-01-21T23:08:46.083Z,40.35
2019-01-21T23:11:21.142Z,38.80
2019-01-21T23:13:54.428Z,39.90
2019-01-21T23:16:29.885Z,38.80
2019-01-21T23:19:02.107Z,39.50
2019-01-21T23:21:36.147Z,38.80
2019-01-21T23:24:10.280Z,38.23
2019-01-21T23:26:44.081Z,40.13
2019-01-21T23:29:16.284Z,38.33
2019-01-21T23:31:49.165Z,39.27
2019-01-21T23:34:20.462Z,40.50
2019-01-21T23:36:54.327Z,39.03
2019-01-21T23:39:28.331Z,40.70
2019-01-21T23:42:02.224Z,41.07
2019-01-21T23:44:38.054Z,38.10
2019-01-21T23:47:10.097Z,38.90
2019-01-21T23:49:41.367Z,37.43
2019-01-21T23:52:14.605Z,41.20
2019-01-21T23:54:48.426Z,39.37
2019-01-21T23:57:22.419Z,36.30
2019-01-21T23:59:56.438Z,37.90
